Time;durP1;ratioP1;P1;durP2;ratioP2;P2;SDS_P1;SDS_P2;PMS_P1;PMS_P2;Temp;Humidity;BMP_temperature;BMP_pressure;BME280_temperature;BME280_humidity;BME280_pressure;Samples;Min_cycle;Max_cycle;Signal;HPM_P1;HPM_P2
2023/05/23 00:01:06;;;;;;;;;;;;;;;23.19;86.41;97412.81;5082685;28;19963;-74
2023/05/23 00:03:35;;;;;;;;;;;;;;;23.72;83.44;97408.47;5074089;28;19925;-74
2023/05/23 00:06:01;;;;;;;;;;;;;;;24.15;79.73;97425.28;5074609;28;19932;-74
2023/05/23 00:08:28;;;;;;;;;;;;;;;24.31;77.31;97421.66;5076744;28;19928;-74
2023/05/23 00:10:54;;;;;;;;;;;;;;;24.46;75.76;97427.00;5077496;28;20000;-74
2023/05/23 00:13:20;;;;;;;;;;;;;;;24.52;74.58;97413.81;5075349;28;19924;-74
2023/05/23 00:15:47;;;;;;;;;;;;;;;23.64;77.89;97419.22;5082218;28;19963;-74
2023/05/23 00:18:15;;;;;;;;;;;;;;;23.88;79.13;97423.59;5079223;28;19940;-74
2023/05/23 00:20:43;;;;;;;;;;;;;;;24.05;78.26;97427.78;5076372;28;19925;-74
2023/05/23 00:23:09;;;;;;;;;;;;;;;24.20;76.19;97424.22;5079601;28;19951;-74
2023/05/23 00:25:36;;;;;;;;;;;;;;;24.31;75.12;97427.91;5082524;28;19931;-74
2023/05/23 00:28:03;;;;;;;;;;;;;;;24.39;74.12;97428.81;5078101;28;20010;-74
2023/05/23 00:30:30;;;;;;;;;;;;;;;24.44;73.54;97423.84;5090430;28;19921;-74
2023/05/23 00:32:56;;;;;;;;;;;;;;;24.44;73.00;97429.31;5077702;28;19925;-74
2023/05/23 00:35:23;;;;;;;;;;;;;;;24.43;72.84;97427.72;5077155;28;19929;-74
2023/05/23 00:37:51;;;;;;;;;;;;;;;24.39;72.49;97426.88;5074592;28;19988;-74
2023/05/23 00:40:17;;;;;;;;;;;;;;;24.37;72.87;97426.47;5074675;28;19936;-74
2023/05/23 00:42:45;;;;;;;;;;;;;;;24.39;73.24;97428.81;5075744;28;19991;-74
2023/05/23 00:45:12;;;;;;;;;;;;;;;24.37;73.31;97440.09;5079477;28;20036;-74
2023/05/23 00:47:39;;;;;;;;;;;;;;;24.36;73.49;97445.91;5082663;28;19924;-74
2023/05/23 00:50:07;;;;;;;;;;;;;;;24.36;73.51;97443.97;5078357;28;19939;-74
2023/05/23 00:52:34;;;;;;;;;;;;;;;24.32;73.85;97443.16;5077220;28;19960;-72
2023/05/23 00:55:01;;;;;;;;;;;;;;;24.32;74.08;97450.53;5077689;28;20041;-73
2023/05/23 00:57:28;;;;;;;;;;;;;;;24.26;74.43;97444.59;5074512;28;19935;-73
2023/05/23 00:59:55;;;;;;;;;;;;;;;24.25;75.05;97453.94;5071977;28;20223;-73
2023/05/23 01:02:21;;;;;;;;;;;;;;;24.22;75.65;97442.94;5073579;28;19925;-74
2023/05/23 01:04:53;;;;;;;;;;;;;;;23.92;76.80;97448.22;5072687;28;19924;-74
2023/05/23 01:07:19;;;;;;;;;;;;;;;23.49;81.51;97441.91;5070560;28;19925;-74
2023/05/23 01:09:45;;;;;;;;;;;;;;;23.77;80.35;97449.84;5082431;28;19929;-74
2023/05/23 01:12:19;;;;;;;;;;;;;;;23.94;78.69;97440.44;5071905;28;19956;-74
2023/05/23 01:14:47;;;;;;;;;;;;;;;24.05;77.41;97450.41;5077088;28;19928;-74
2023/05/23 01:17:17;;;;;;;;;;;;;;;24.11;77.09;97459.09;5077039;28;19924;-74
2023/05/23 01:19:59;;;;;;;;;;;;;;;24.12;76.85;97461.50;5077206;28;19932;-74
2023/05/23 01:22:33;;;;;;;;;;;;;;;24.06;77.22;97456.66;5082681;28;19928;-74
2023/05/23 01:25:06;;;;;;;;;;;;;;;24.07;77.57;97461.75;5084787;28;19947;-73
2023/05/23 01:27:48;;;;;;;;;;;;;;;24.03;78.14;97466.34;5073852;28;19925;-74
2023/05/23 01:30:18;;;;;;;;;;;;;;;24.05;78.33;97471.44;5075412;28;19972;-74
2023/05/23 01:32:46;;;;;;;;;;;;;;;24.05;78.28;97466.78;5069546;28;19999;-74
2023/05/23 01:35:13;;;;;;;;;;;;;;;24.06;78.44;97468.34;5084924;28;19988;-74
2023/05/23 01:37:40;;;;;;;;;;;;;;;24.04;78.74;97473.41;5071671;28;19928;-74
2023/05/23 01:40:08;;;;;;;;;;;;;;;24.03;79.02;97465.56;5072269;28;19996;-74
2023/05/23 01:42:34;;;;;;;;;;;;;;;24.01;78.97;97476.84;5075617;28;19963;-74
2023/05/23 01:45:02;;;;;;;;;;;;;;;23.98;79.26;97476.78;5076393;28;19951;-72
2023/05/23 01:47:31;;;;;;;;;;;;;;;23.92;79.46;97473.53;5075660;28;19925;-72
2023/05/23 01:49:59;;;;;;;;;;;;;;;23.91;80.10;97473.91;5075762;28;19955;-74
2023/05/23 01:52:25;;;;;;;;;;;;;;;23.88;80.41;97467.25;5071329;28;19928;-73
2023/05/23 01:54:52;;;;;;;;;;;;;;;23.85;81.16;97472.63;5081077;28;19935;-73
2023/05/23 01:57:19;;;;;;;;;;;;;;;23.88;81.28;97469.16;5073824;28;19925;-73
2023/05/23 01:59:46;;;;;;;;;;;;;;;23.85;81.32;97478.06;5082213;28;19962;-73
2023/05/23 02:02:13;;;;;;;;;;;;;;;23.28;84.70;97465.16;5071072;28;19956;-73
2023/05/23 02:04:40;;;;;;;;;;;;;;;22.58;91.05;97471.31;5073807;28;19972;-73
2023/05/23 02:07:06;;;;;;;;;;;;;;;22.43;93.19;97474.00;5075306;28;19984;-73
2023/05/23 02:09:33;;;;;;;;;;;;;;;22.27;96.14;97475.94;5079460;28;19996;-72
2023/05/23 02:12:00;;;;;;;;;;;;;;;22.95;90.52;97474.56;5075669;28;19925;-72
2023/05/23 02:14:27;;;;;;;;;;;;;;;23.17;88.41;97470.38;5074342;28;19955;-73
2023/05/23 02:16:53;;;;;;;;;;;;;;;22.87;90.39;97472.03;5075404;28;19924;-73
2023/05/23 02:19:21;;;;;;;;;;;;;;;23.09;89.56;97465.91;5073260;28;19986;-73
2023/05/23 02:21:49;;;;;;;;;;;;;;;23.30;87.34;97468.31;5068420;28;19925;-73
2023/05/23 02:24:16;;;;;;;;;;;;;;;23.45;85.90;97471.03;5072323;28;20009;-73
2023/05/23 02:26:42;;;;;;;;;;;;;;;23.52;84.97;97473.88;5073889;28;20389;-73
2023/05/23 02:29:08;;;;;;;;;;;;;;;23.57;84.32;97468.19;5075595;28;19929;-73
2023/05/23 02:31:36;;;;;;;;;;;;;;;23.57;84.03;97473.63;5073541;28;19988;-73
2023/05/23 02:34:02;;;;;;;;;;;;;;;23.58;83.98;97468.97;5075796;28;19960;-72
2023/05/23 02:36:32;;;;;;;;;;;;;;;23.54;84.00;97481.72;5075476;28;19967;-72
2023/05/23 02:38:58;;;;;;;;;;;;;;;23.59;83.71;97475.97;5076177;28;19925;-73
2023/05/23 02:41:24;;;;;;;;;;;;;;;23.60;83.30;97477.56;5076097;28;19921;-73
2023/05/23 02:43:51;;;;;;;;;;;;;;;23.58;83.39;97477.16;5074614;28;19935;-73
2023/05/23 02:46:17;;;;;;;;;;;;;;;23.57;83.31;97479.06;5077891;28;19956;-73
2023/05/23 02:48:44;;;;;;;;;;;;;;;23.53;83.77;97489.09;5073153;28;19986;-73
2023/05/23 02:51:12;;;;;;;;;;;;;;;23.32;84.77;97488.63;5075932;28;19929;-73
2023/05/23 02:53:40;;;;;;;;;;;;;;;23.03;86.98;97480.94;5076252;28;19924;-73
2023/05/23 02:56:07;;;;;;;;;;;;;;;22.97;87.86;97483.16;5075568;28;19933;-73
2023/05/23 02:58:34;;;;;;;;;;;;;;;23.18;86.56;97482.84;5073339;28;19925;-73
2023/05/23 03:01:01;;;;;;;;;;;;;;;23.14;86.43;97482.00;5075389;28;19936;-73
2023/05/23 03:03:29;;;;;;;;;;;;;;;23.03;87.22;97478.22;5086994;28;19955;-73
2023/05/23 03:05:56;;;;;;;;;;;;;;;23.07;86.72;97476.38;5078436;28;19928;-74
2023/05/23 03:08:22;;;;;;;;;;;;;;;22.99;86.99;97471.91;5076049;28;19955;-74
2023/05/23 03:10:50;;;;;;;;;;;;;;;22.97;87.36;97469.53;5090054;28;19916;-74
2023/05/23 03:13:17;;;;;;;;;;;;;;;23.11;86.42;97474.53;5087218;28;19921;-74
2023/05/23 03:15:43;;;;;;;;;;;;;;;23.24;85.37;97470.53;5082134;28;19925;-73
2023/05/23 03:18:10;;;;;;;;;;;;;;;23.35;84.27;97473.50;5079305;28;20051;-74
2023/05/23 03:20:36;;;;;;;;;;;;;;;23.34;83.90;97469.97;5076667;28;19955;-74
2023/05/23 03:23:02;;;;;;;;;;;;;;;23.45;83.29;97473.75;5082684;28;19925;-74
2023/05/23 03:25:29;;;;;;;;;;;;;;;23.36;83.35;97467.69;5078322;28;19952;-72
2023/05/23 03:27:57;;;;;;;;;;;;;;;23.12;85.14;97470.63;5084205;28;19935;-72
2023/05/23 03:30:35;;;;;;;;;;;;;;;22.89;86.48;97459.63;5077016;28;19928;-73
2023/05/23 03:33:02;;;;;;;;;;;;;;;22.75;88.19;97463.94;5079989;28;19932;-72
2023/05/23 03:35:28;;;;;;;;;;;;;;;22.84;88.43;97467.28;5075449;28;19992;-72
2023/05/23 03:37:54;;;;;;;;;;;;;;;23.04;87.01;97466.19;5079021;28;19948;-73
2023/05/23 03:40:21;;;;;;;;;;;;;;;23.21;85.53;97468.50;5078823;28;20370;-73
2023/05/23 03:42:48;;;;;;;;;;;;;;;23.23;84.88;97474.41;5076566;28;19959;-73
2023/05/23 03:45:17;;;;;;;;;;;;;;;23.18;84.97;97477.38;5074295;28;20223;-74
2023/05/23 03:47:43;;;;;;;;;;;;;;;23.16;85.68;97476.97;5083701;28;19996;-73
2023/05/23 03:50:10;;;;;;;;;;;;;;;23.19;85.21;97465.34;5077890;28;19924;-74
2023/05/23 03:52:36;;;;;;;;;;;;;;;23.21;84.76;97471.22;5074137;28;19963;-73
2023/05/23 03:55:03;;;;;;;;;;;;;;;23.04;86.06;97474.34;5077951;28;19925;-73
2023/05/23 03:57:29;;;;;;;;;;;;;;;22.81;87.49;97479.66;5076010;28;19925;-73
2023/05/23 03:59:56;;;;;;;;;;;;;;;22.80;88.40;97477.28;5078002;28;20414;-73
2023/05/23 04:02:23;;;;;;;;;;;;;;;22.71;88.41;97477.47;5077772;28;19984;-73
2023/05/23 04:04:50;;;;;;;;;;;;;;;22.27;91.47;97487.59;5076465;28;19946;-73
2023/05/23 04:07:16;;;;;;;;;;;;;;;22.13;94.18;97481.78;5073916;28;19928;-73
2023/05/23 04:09:43;;;;;;;;;;;;;;;22.58;91.23;97484.91;5076534;28;19994;-73
2023/05/23 04:12:10;;;;;;;;;;;;;;;22.82;89.09;97485.88;5085829;28;20066;-73
2023/05/23 04:14:38;;;;;;;;;;;;;;;22.96;88.12;97484.28;5074611;28;19925;-73
2023/05/23 04:17:04;;;;;;;;;;;;;;;23.05;87.23;97484.13;5074715;28;20636;-73
2023/05/23 04:19:32;;;;;;;;;;;;;;;23.18;86.16;97480.13;5077759;28;19935;-74
2023/05/23 04:21:58;;;;;;;;;;;;;;;23.17;86.10;97475.84;5080989;28;19952;-74
2023/05/23 04:24:25;;;;;;;;;;;;;;;23.11;86.31;97482.69;5078254;28;19994;-74
2023/05/23 04:26:51;;;;;;;;;;;;;;;23.07;87.11;97477.16;5077509;28;20034;-73
2023/05/23 04:29:17;;;;;;;;;;;;;;;23.03;87.76;97480.94;5071579;28;19976;-73
2023/05/23 04:31:44;;;;;;;;;;;;;;;23.06;87.98;97488.41;5076741;28;19960;-73
2023/05/23 04:34:11;;;;;;;;;;;;;;;23.07;88.31;97487.25;5076729;28;19956;-72
2023/05/23 04:36:39;;;;;;;;;;;;;;;23.10;88.35;97509.13;5072326;28;19929;-73
2023/05/23 04:39:05;;;;;;;;;;;;;;;23.14;88.21;97514.69;5073409;28;19928;-73
2023/05/23 04:41:32;;;;;;;;;;;;;;;23.15;88.37;97518.97;5076695;28;19976;-73
2023/05/23 04:43:58;;;;;;;;;;;;;;;23.18;88.35;97518.25;5076842;28;19960;-73
2023/05/23 04:46:25;;;;;;;;;;;;;;;23.19;88.35;97511.66;5076995;28;19925;-73
2023/05/23 04:48:51;;;;;;;;;;;;;;;23.20;88.38;97512.47;5076587;28;19924;-73
2023/05/23 04:51:20;;;;;;;;;;;;;;;23.21;88.71;97516.78;5073725;28;20595;-73
2023/05/23 04:53:48;;;;;;;;;;;;;;;23.14;89.74;97517.41;5081800;28;19960;-73
2023/05/23 04:56:16;;;;;;;;;;;;;;;23.22;89.64;97510.97;5078028;28;19952;-73
2023/05/23 04:58:44;;;;;;;;;;;;;;;23.27;89.45;97515.34;5077779;28;19923;-73
2023/05/23 05:01:10;;;;;;;;;;;;;;;23.16;90.98;97512.38;5078456;28;19924;-74
2023/05/23 05:03:36;;;;;;;;;;;;;;;23.26;91.01;97517.28;5079278;28;20032;-74
2023/05/23 05:06:04;;;;;;;;;;;;;;;23.27;91.56;97518.09;5076623;28;19984;-74
2023/05/23 05:08:31;;;;;;;;;;;;;;;23.23;92.93;97520.72;5076535;28;19932;-74
2023/05/23 05:10:59;;;;;;;;;;;;;;;23.24;93.11;97518.78;5075426;28;19960;-74
2023/05/23 05:13:25;;;;;;;;;;;;;;;23.27;93.64;97521.59;5072969;28;20023;-73
2023/05/23 05:15:52;;;;;;;;;;;;;;;23.32;93.31;97525.97;5073506;28;19944;-73
2023/05/23 05:18:18;;;;;;;;;;;;;;;23.28;94.85;97525.88;5084870;28;19932;-73
2023/05/23 05:20:46;;;;;;;;;;;;;;;23.18;96.00;97528.38;5073403;28;20184;-73
2023/05/23 05:23:12;;;;;;;;;;;;;;;23.27;95.68;97529.78;5072340;28;19925;-73
2023/05/23 05:25:40;;;;;;;;;;;;;;;23.36;95.28;97522.19;5073523;28;19968;-73
2023/05/23 05:28:07;;;;;;;;;;;;;;;23.24;97.36;97524.25;5078343;28;19924;-73
2023/05/23 05:30:35;;;;;;;;;;;;;;;22.85;100.00;97528.75;5071438;28;19924;-73
2023/05/23 05:33:02;;;;;;;;;;;;;;;22.93;100.00;97528.56;5075962;28;19925;-73
2023/05/23 05:35:29;;;;;;;;;;;;;;;23.19;98.63;97521.78;5077184;28;19925;-73
2023/05/23 05:37:55;;;;;;;;;;;;;;;23.33;98.01;97531.09;5069175;28;19932;-73
2023/05/23 05:40:22;;;;;;;;;;;;;;;23.56;96.36;97537.47;5083629;28;19959;-73
2023/05/23 05:42:48;;;;;;;;;;;;;;;23.65;96.00;97538.03;5074362;28;19951;-73
2023/05/23 05:45:16;;;;;;;;;;;;;;;23.76;94.75;97540.22;5073419;28;19959;-73
2023/05/23 05:47:43;;;;;;;;;;;;;;;23.80;97.57;97539.13;5077346;28;19944;-72
2023/05/23 05:50:09;;;;;;;;;;;;;;;23.91;95.45;97544.81;5079422;28;19927;-72
2023/05/23 05:52:38;;;;;;;;;;;;;;;23.93;97.07;97545.22;5079224;28;19992;-72
2023/05/23 05:55:05;;;;;;;;;;;;;;;23.98;98.43;97542.25;5078550;28;19947;-72
2023/05/23 05:57:31;;;;;;;;;;;;;;;23.88;97.58;97540.88;5075153;28;19920;-73
2023/05/23 05:59:58;;;;;;;;;;;;;;;24.03;96.72;97550.13;5078470;28;19976;-73
2023/05/23 06:02:26;;;;;;;;;;;;;;;23.95;97.87;97548.41;5076583;28;19988;-73
2023/05/23 06:04:52;;;;;;;;;;;;;;;24.27;96.37;97543.59;5074501;28;19921;-74
2023/05/23 06:07:19;;;;;;;;;;;;;;;24.35;96.83;97551.59;5071992;28;19971;-74
2023/05/23 06:09:45;;;;;;;;;;;;;;;24.39;95.93;97551.63;5073956;28;19924;-73
2023/05/23 06:12:12;;;;;;;;;;;;;;;24.45;95.89;97545.50;5077179;28;19925;-73
2023/05/23 06:14:38;;;;;;;;;;;;;;;24.44;95.72;97554.88;5080814;28;20044;-73
2023/05/23 06:17:05;;;;;;;;;;;;;;;24.63;94.89;97554.81;5072058;28;19963;-72
2023/05/23 06:19:33;;;;;;;;;;;;;;;24.73;94.09;97551.50;5075742;28;19936;-73
2023/05/23 06:22:00;;;;;;;;;;;;;;;24.66;95.17;97554.09;5078295;28;19920;-73
2023/05/23 06:24:26;;;;;;;;;;;;;;;24.62;95.83;97555.19;5075718;28;19928;-73
2023/05/23 06:26:53;;;;;;;;;;;;;;;24.84;94.84;97550.91;5074353;28;19932;-73
2023/05/23 06:29:19;;;;;;;;;;;;;;;24.94;93.51;97559.31;5072488;28;19956;-74
2023/05/23 06:31:45;;;;;;;;;;;;;;;24.97;94.12;97563.25;5070871;28;19961;-74
2023/05/23 06:34:12;;;;;;;;;;;;;;;25.10;93.13;97561.88;5075809;28;19932;-75
2023/05/23 06:36:40;;;;;;;;;;;;;;;24.87;93.92;97561.91;5080658;28;19929;-73
2023/05/23 06:39:08;;;;;;;;;;;;;;;24.68;95.98;97564.66;5072171;28;19929;-74
2023/05/23 06:41:35;;;;;;;;;;;;;;;24.70;96.20;97571.34;5074769;28;19939;-74
2023/05/23 06:44:01;;;;;;;;;;;;;;;24.96;95.38;97565.19;5075883;28;19924;-74
2023/05/23 06:46:28;;;;;;;;;;;;;;;24.88;95.44;97562.69;5075812;28;20007;-74
2023/05/23 06:48:54;;;;;;;;;;;;;;;24.83;96.13;97571.19;5074264;28;19925;-74
2023/05/23 06:51:20;;;;;;;;;;;;;;;24.81;96.04;97568.00;5071930;28;19925;-74
2023/05/23 06:53:48;;;;;;;;;;;;;;;25.12;94.93;97570.53;5074819;28;20028;-74
2023/05/23 06:56:14;;;;;;;;;;;;;;;25.23;93.32;97568.72;5075848;28;19921;-74
2023/05/23 06:58:41;;;;;;;;;;;;;;;25.25;92.97;97574.63;5079470;28;19925;-75
2023/05/23 07:01:09;;;;;;;;;;;;;;;25.37;92.59;97565.44;5068420;28;19925;-75
2023/05/23 07:03:37;;;;;;;;;;;;;;;25.25;91.74;97575.41;5074535;28;19925;-74
2023/05/23 07:06:03;;;;;;;;;;;;;;;25.37;92.31;97568.97;5075281;28;19925;-78
2023/05/23 07:08:30;;;;;;;;;;;;;;;25.44;91.41;97560.84;5069673;28;19960;-74
2023/05/23 07:10:57;;;;;;;;;;;;;;;25.31;91.35;97572.38;5074642;28;19959;-74
2023/05/23 07:13:24;;;;;;;;;;;;;;;25.32;92.24;97573.94;5085168;28;19928;-74
2023/05/23 07:15:50;;;;;;;;;;;;;;;25.36;92.37;97572.06;5080256;28;19959;-74
2023/05/23 07:18:16;;;;;;;;;;;;;;;25.30;92.24;97576.25;5075175;28;20256;-74
2023/05/23 07:20:43;;;;;;;;;;;;;;;25.37;91.92;97574.44;5071576;28;19929;-74
2023/05/23 07:23:09;;;;;;;;;;;;;;;25.25;93.11;97577.38;5071974;28;19952;-74
2023/05/23 07:25:35;;;;;;;;;;;;;;;25.09;93.86;97576.72;5074688;28;19948;-74
2023/05/23 07:28:03;;;;;;;;;;;;;;;25.22;92.84;97589.03;5075780;28;19925;-74
2023/05/23 07:30:29;;;;;;;;;;;;;;;25.06;94.45;97586.44;5070226;28;19921;-74
2023/05/23 07:32:56;;;;;;;;;;;;;;;24.95;94.70;97582.72;5074894;28;19925;-74
2023/05/23 07:35:25;;;;;;;;;;;;;;;24.99;94.82;97588.25;5072320;28;19991;-74
2023/05/23 07:37:51;;;;;;;;;;;;;;;24.98;95.30;97594.84;5079807;28;19925;-74
2023/05/23 07:40:18;;;;;;;;;;;;;;;24.86;95.72;97584.09;5075506;28;19929;-74
2023/05/23 07:42:45;;;;;;;;;;;;;;;24.85;96.89;97580.59;5072923;28;19921;-74
2023/05/23 07:45:12;;;;;;;;;;;;;;;24.97;96.01;97587.84;5073510;28;19924;-74
2023/05/23 07:47:39;;;;;;;;;;;;;;;25.09;95.00;97588.44;5077707;28;19924;-74
2023/05/23 07:50:06;;;;;;;;;;;;;;;25.34;93.30;97599.78;5078773;28;19924;-74
2023/05/23 07:52:32;;;;;;;;;;;;;;;25.27;93.41;97596.91;5077664;28;19936;-74
2023/05/23 07:54:59;;;;;;;;;;;;;;;25.25;93.96;97599.25;5070359;28;19920;-74
2023/05/23 07:57:26;;;;;;;;;;;;;;;25.18;92.94;97599.13;5081196;28;19924;-75
2023/05/23 07:59:53;;;;;;;;;;;;;;;25.04;93.97;97593.41;5074801;28;19955;-74
2023/05/23 08:02:20;;;;;;;;;;;;;;;25.13;93.95;97596.66;5078126;28;20033;-74
2023/05/23 08:04:47;;;;;;;;;;;;;;;25.21;93.80;97598.38;5075562;28;19967;-74
2023/05/23 08:07:13;;;;;;;;;;;;;;;25.35;93.36;97597.81;5074315;28;19924;-74
2023/05/23 08:09:40;;;;;;;;;;;;;;;25.53;91.73;97599.69;5076646;28;19920;-73
2023/05/23 08:12:06;;;;;;;;;;;;;;;25.57;90.59;97595.06;5077742;28;19921;-74
2023/05/23 08:14:33;;;;;;;;;;;;;;;25.69;91.31;97588.59;5076772;28;19924;-74
2023/05/23 08:16:59;;;;;;;;;;;;;;;25.76;90.23;97580.50;5071409;28;19944;-75
2023/05/23 08:19:27;;;;;;;;;;;;;;;25.76;90.45;97578.56;5082619;28;19955;-75
2023/05/23 08:21:53;;;;;;;;;;;;;;;25.82;90.76;97583.69;5083276;28;19960;-75
2023/05/23 08:24:20;;;;;;;;;;;;;;;25.52;89.59;97597.34;5078349;28;19920;-74
2023/05/23 08:26:46;;;;;;;;;;;;;;;25.57;92.55;97600.53;5075727;28;20589;-74
2023/05/23 08:29:13;;;;;;;;;;;;;;;25.65;90.85;97593.25;5072878;28;19962;-74
2023/05/23 08:31:39;;;;;;;;;;;;;;;25.47;91.32;97595.66;5076707;28;19921;-79
2023/05/23 08:34:06;;;;;;;;;;;;;;;25.63;89.49;97609.22;5082119;28;19920;-74
2023/05/23 08:36:35;;;;;;;;;;;;;;;25.73;89.98;97605.84;5087698;28;19963;-74
2023/05/23 08:39:02;;;;;;;;;;;;;;;25.86;88.79;97606.41;5082648;28;19924;-74
2023/05/23 08:41:29;;;;;;;;;;;;;;;25.81;86.25;97609.47;5083485;28;20088;-74
2023/05/23 08:43:56;;;;;;;;;;;;;;;25.10;89.79;97622.00;5075124;28;19948;-74
2023/05/23 08:46:23;;;;;;;;;;;;;;;25.22;93.08;97621.84;5096669;28;19913;-74
2023/05/23 08:48:51;;;;;;;;;;;;;;;25.66;90.81;97619.41;5086566;28;19920;-74
2023/05/23 08:51:17;;;;;;;;;;;;;;;25.78;88.62;97611.78;5073690;28;19921;-74
2023/05/23 08:53:46;;;;;;;;;;;;;;;25.84;88.67;97623.22;5076034;28;19932;-74
2023/05/23 08:56:13;;;;;;;;;;;;;;;26.00;87.23;97618.34;5076622;28;19968;-75
2023/05/23 08:58:41;;;;;;;;;;;;;;;25.93;87.39;97612.00;5083322;28;19936;-73
2023/05/23 09:01:09;;;;;;;;;;;;;;;25.98;85.30;97622.59;5075819;28;19939;-74
2023/05/23 09:03:36;;;;;;;;;;;;;;;26.18;85.40;97624.84;5073574;28;19935;-74
2023/05/23 09:06:05;;;;;;;;;;;;;;;26.33;83.40;97636.00;5072745;28;19925;-74
2023/05/23 09:08:32;;;;;;;;;;;;;;;26.45;82.31;97633.03;5078926;28;19985;-74
2023/05/23 09:11:01;;;;;;;;;;;;;;;26.12;81.47;97633.75;5073276;28;19939;-74
2023/05/23 09:13:29;;;;;;;;;;;;;;;26.40;82.12;97630.63;5088310;28;19920;-74
2023/05/23 09:15:57;;;;;;;;;;;;;;;26.11;80.29;97635.72;5075566;28;19947;-75
2023/05/23 09:18:24;;;;;;;;;;;;;;;25.53;82.18;97637.22;5077108;28;19924;-74
2023/05/23 09:20:51;;;;;;;;;;;;;;;26.05;82.37;97631.72;5076725;28;19924;-74
2023/05/23 09:23:17;;;;;;;;;;;;;;;26.30;80.62;97638.31;5077056;28;19955;-75
2023/05/23 09:25:46;;;;;;;;;;;;;;;26.40;79.10;97636.09;5074554;28;19921;-74
2023/05/23 09:28:14;;;;;;;;;;;;;;;26.46;79.83;97635.38;5072920;28;19925;-74
2023/05/23 09:30:40;;;;;;;;;;;;;;;26.20;78.41;97629.97;5072851;28;19931;-74
2023/05/23 09:33:06;;;;;;;;;;;;;;;26.26;79.81;97631.22;5085408;28;19956;-74
2023/05/23 09:35:36;;;;;;;;;;;;;;;26.03;78.13;97636.75;5072579;28;19956;-73
2023/05/23 09:38:02;;;;;;;;;;;;;;;26.06;78.80;97636.00;5073610;28;19925;-74
2023/05/23 09:40:29;;;;;;;;;;;;;;;26.12;79.48;97631.78;5076772;28;19993;-74
2023/05/23 09:43:01;;;;;;;;;;;;;;;26.03;79.17;97649.63;5076571;28;19925;-74
2023/05/23 09:45:30;;;;;;;;;;;;;;;25.61;80.09;97639.66;5075196;28;19956;-74
2023/05/23 09:47:57;;;;;;;;;;;;;;;25.84;81.74;97633.38;5084027;28;19930;-74
2023/05/23 09:50:24;;;;;;;;;;;;;;;26.12;80.67;97637.25;5077329;28;19925;-74
2023/05/23 09:52:52;;;;;;;;;;;;;;;25.91;78.64;97645.19;5076368;28;19927;-74
2023/05/23 09:55:19;;;;;;;;;;;;;;;26.05;79.93;97637.19;5076592;28;19974;-74
2023/05/23 09:57:48;;;;;;;;;;;;;;;25.99;79.68;97646.88;5074063;28;19924;-74
2023/05/23 10:00:15;;;;;;;;;;;;;;;25.99;78.50;97640.63;5069589;28;19924;-74
2023/05/23 10:02:54;;;;;;;;;;;;;;;25.93;78.84;97651.09;5070735;28;19921;-74
2023/05/23 10:05:30;;;;;;;;;;;;;;;26.00;78.58;97650.38;5076223;28;19932;-74
2023/05/23 10:07:58;;;;;;;;;;;;;;;26.04;78.76;97646.53;5082868;28;19980;-74
2023/05/23 10:10:26;;;;;;;;;;;;;;;26.00;76.87;97648.44;5071652;28;19932;-74
2023/05/23 10:12:55;;;;;;;;;;;;;;;26.11;76.44;97654.06;5074087;28;19963;-74
2023/05/23 10:15:24;;;;;;;;;;;;;;;26.02;74.83;97646.13;5076062;28;19947;-75
2023/05/23 10:18:01;;;;;;;;;;;;;;;26.02;75.80;97632.47;5076433;28;19988;-74
2023/05/23 10:20:30;;;;;;;;;;;;;;;26.17;76.09;97638.94;5074620;28;19932;-75
2023/05/23 10:22:58;;;;;;;;;;;;;;;26.18;72.98;97637.78;5068987;28;20016;-74
2023/05/23 10:25:24;;;;;;;;;;;;;;;25.75;72.48;97647.28;5072465;28;19935;-74
2023/05/23 10:27:57;;;;;;;;;;;;;;;25.54;77.57;97650.50;5081445;28;20113;-74
2023/05/23 10:30:24;;;;;;;;;;;;;;;25.83;78.21;97640.00;5073279;28;19935;-74
2023/05/23 10:32:50;;;;;;;;;;;;;;;25.97;77.02;97653.84;5072370;28;19935;-74
2023/05/23 10:35:22;;;;;;;;;;;;;;;26.02;76.28;97648.09;5071348;28;20358;-75
2023/05/23 10:37:52;;;;;;;;;;;;;;;26.20;75.53;97638.97;5073542;28;19956;-75
2023/05/23 10:40:22;;;;;;;;;;;;;;;26.17;74.50;97644.41;5075787;28;19956;-74
2023/05/23 10:42:51;;;;;;;;;;;;;;;25.98;75.87;97644.50;5075719;28;19975;-74
2023/05/23 10:45:18;;;;;;;;;;;;;;;26.06;75.84;97654.38;5077363;28;19932;-74
2023/05/23 10:47:46;;;;;;;;;;;;;;;25.96;76.88;97652.31;5074614;28;19925;-73
2023/05/23 10:50:13;;;;;;;;;;;;;;;26.11;76.03;97651.34;5076699;28;19925;-74
2023/05/23 10:52:42;;;;;;;;;;;;;;;26.10;77.05;97644.28;5075697;28;19931;-74
2023/05/23 10:55:12;;;;;;;;;;;;;;;26.24;77.05;97639.03;5075591;28;20071;-74
2023/05/23 10:57:40;;;;;;;;;;;;;;;26.29;74.95;97641.44;5072388;28;19992;-74
2023/05/23 11:00:12;;;;;;;;;;;;;;;26.05;74.57;97647.34;5071869;28;19931;-74
2023/05/23 11:02:38;;;;;;;;;;;;;;;25.84;77.83;97647.03;5071500;28;19963;-74
2023/05/23 11:05:22;;;;;;;;;;;;;;;25.80;75.95;97652.47;5075363;28;19943;-74
2023/05/23 11:08:06;;;;;;;;;;;;;;;25.88;77.42;97645.13;5081892;28;19924;-74
2023/05/23 11:10:32;;;;;;;;;;;;;;;26.14;76.17;97645.91;5070117;28;19935;-74
2023/05/23 11:13:06;;;;;;;;;;;;;;;26.28;75.31;97648.06;5072467;28;19924;-73
2023/05/23 11:15:41;;;;;;;;;;;;;;;25.93;74.15;97637.41;5072957;28;19924;-74
2023/05/23 11:18:08;;;;;;;;;;;;;;;25.80;76.58;97649.72;5075180;28;19925;-75
2023/05/23 11:20:36;;;;;;;;;;;;;;;25.78;75.32;97641.88;5077427;28;19978;-75
2023/05/23 11:23:08;;;;;;;;;;;;;;;25.71;73.93;97632.78;5078763;28;19985;-75
2023/05/23 11:25:41;;;;;;;;;;;;;;;25.28;73.91;97644.97;5075729;28;19934;-75
2023/05/23 11:28:08;;;;;;;;;;;;;;;25.75;76.01;97637.13;5073652;28;19925;-76
2023/05/23 11:30:36;;;;;;;;;;;;;;;25.89;75.96;97646.72;5082227;28;19958;-75
2023/05/23 11:33:07;;;;;;;;;;;;;;;26.03;75.06;97638.69;5080509;28;19937;-74
2023/05/23 11:35:33;;;;;;;;;;;;;;;25.96;73.65;97642.16;5073852;28;19920;-74
2023/05/23 11:38:00;;;;;;;;;;;;;;;25.90;72.38;97634.63;5077926;28;19992;-75
2023/05/23 11:40:29;;;;;;;;;;;;;;;25.73;67.36;97649.63;5079015;28;19924;-75
2023/05/23 11:42:56;;;;;;;;;;;;;;;25.63;72.07;97642.03;5078888;28;19984;-75
2023/05/23 11:45:22;;;;;;;;;;;;;;;25.43;67.41;97644.03;5079798;28;19947;-74
2023/05/23 11:47:48;;;;;;;;;;;;;;;25.12;67.55;97630.63;5078309;28;20011;-74
2023/05/23 11:50:15;;;;;;;;;;;;;;;25.58;71.24;97645.88;5080655;28;19920;-75
2023/05/23 11:52:41;;;;;;;;;;;;;;;25.81;70.51;97639.56;5078641;28;19931;-75
2023/05/23 11:55:08;;;;;;;;;;;;;;;25.76;70.92;97641.47;5074615;28;19924;-75
2023/05/23 11:57:39;;;;;;;;;;;;;;;25.94;71.17;97624.50;5071632;28;19959;-75
2023/05/23 12:00:07;;;;;;;;;;;;;;;25.99;68.50;97629.66;5074591;28;19920;-72
2023/05/23 12:02:38;;;;;;;;;;;;;;;25.87;68.30;97618.94;5075914;28;19955;-74
2023/05/23 12:05:07;;;;;;;;;;;;;;;25.83;67.89;97612.63;5078361;28;19933;-74
2023/05/23 12:07:35;;;;;;;;;;;;;;;25.68;66.88;97633.53;5074621;28;20537;-75
2023/05/23 12:10:01;;;;;;;;;;;;;;;25.87;67.64;97627.16;5077968;28;19980;-74
2023/05/23 12:12:28;;;;;;;;;;;;;;;25.78;66.47;97617.25;5078172;28;19960;-74
2023/05/23 12:14:57;;;;;;;;;;;;;;;26.03;67.33;97634.00;5077988;28;20001;-74
2023/05/23 12:17:23;;;;;;;;;;;;;;;26.04;66.77;97632.06;5077933;28;19929;-75
2023/05/23 12:19:50;;;;;;;;;;;;;;;26.06;64.23;97627.81;5076569;28;19974;-74
2023/05/23 12:22:22;;;;;;;;;;;;;;;26.10;65.63;97631.38;5074788;28;19925;-74
2023/05/23 12:24:48;;;;;;;;;;;;;;;25.87;63.97;97621.69;5075510;28;19925;-74
2023/05/23 12:27:16;;;;;;;;;;;;;;;25.78;64.40;97620.00;5078585;28;19921;-73
2023/05/23 12:29:42;;;;;;;;;;;;;;;25.91;64.92;97623.28;5074885;28;19960;-75
2023/05/23 12:32:10;;;;;;;;;;;;;;;26.05;65.00;97636.41;5091575;28;19925;-73
2023/05/23 12:34:40;;;;;;;;;;;;;;;26.11;65.03;97623.97;5078114;28;19921;-73
2023/05/23 12:37:07;;;;;;;;;;;;;;;26.22;64.50;97628.44;5078210;28;19925;-76
2023/05/23 12:39:36;;;;;;;;;;;;;;;26.24;64.33;97625.34;5084188;28;19970;-73
2023/05/23 12:42:08;;;;;;;;;;;;;;;26.09;64.79;97618.84;5077396;28;19928;-74
2023/05/23 12:44:34;;;;;;;;;;;;;;;26.05;63.72;97619.97;5094720;28;19994;-74
2023/05/23 12:47:01;;;;;;;;;;;;;;;26.20;65.39;97627.25;5071617;28;20371;-74
2023/05/23 12:49:29;;;;;;;;;;;;;;;26.27;66.55;97641.03;5086233;28;20031;-74